createdAt,value
2022-12-29T00:01:05.308Z,23
2022-12-29T00:16:05.046Z,38
2022-12-29T00:31:05.088Z,28
2022-12-29T00:46:05.086Z,23
2022-12-29T01:01:05.754Z,25
2022-12-29T01:16:05.530Z,25
2022-12-29T01:31:05.514Z,25
2022-12-29T01:46:04.730Z,24
2022-12-29T02:01:05.882Z,22
2022-12-29T02:16:05.340Z,21
2022-12-29T02:31:05.540Z,20
2022-12-29T02:46:04.700Z,20
2022-12-29T03:01:05.471Z,19
2022-12-29T03:16:05.562Z,19
2022-12-29T03:31:04.899Z,15
2022-12-29T03:46:05.020Z,27
2022-12-29T04:01:05.213Z,14
2022-12-29T04:16:05.430Z,13
2022-12-29T04:31:05.513Z,13
2022-12-29T04:46:05.787Z,22
2022-12-29T05:01:05.639Z,16
2022-12-29T05:16:05.867Z,16
2022-12-29T05:31:05.829Z,20
2022-12-29T05:46:04.965Z,16
2022-12-29T06:01:04.929Z,20
2022-12-29T06:16:05.779Z,16
2022-12-29T06:31:05.646Z,32
2022-12-29T06:46:05.389Z,21
2022-12-29T07:01:05.344Z,27
2022-12-29T07:16:05.470Z,24
2022-12-29T07:31:05.493Z,29
2022-12-29T07:46:05.623Z,24
2022-12-29T08:01:04.898Z,24
2022-12-29T08:16:06.053Z,30
2022-12-29T08:31:05.183Z,28
2022-12-29T08:46:05.364Z,37
2022-12-29T09:01:05.803Z,23
2022-12-29T09:16:05.231Z,46
2022-12-29T09:31:05.246Z,26
2022-12-29T09:46:05.083Z,31
2022-12-29T10:01:05.016Z,30
2022-12-29T10:16:05.598Z,34
2022-12-29T10:31:09.219Z,26
2022-12-29T10:46:05.613Z,34
2022-12-29T11:01:05.595Z,32
2022-12-29T11:16:05.065Z,31
2022-12-29T11:31:05.174Z,29
2022-12-29T11:46:05.209Z,29
2022-12-29T12:01:05.707Z,29
2022-12-29T12:16:05.347Z,25
2022-12-29T12:31:05.556Z,27
2022-12-29T12:46:05.793Z,33
2022-12-29T13:01:05.359Z,39
2022-12-29T13:16:14.228Z,28
2022-12-29T13:31:05.021Z,30
2022-12-29T13:46:05.562Z,27
2022-12-29T14:01:05.189Z,27
2022-12-29T14:16:05.113Z,21
2022-12-29T14:31:05.669Z,30
2022-12-29T14:46:04.546Z,44
2022-12-29T15:01:06.002Z,41
2022-12-29T15:16:05.820Z,52
2022-12-29T15:31:05.272Z,40
2022-12-29T15:46:05.511Z,39
2022-12-29T16:01:05.274Z,39
2022-12-29T16:16:05.207Z,36
2022-12-29T16:31:05.576Z,37
2022-12-29T16:46:05.855Z,43
2022-12-29T17:01:04.903Z,42
2022-12-29T17:16:05.676Z,41
2022-12-29T17:31:05.570Z,52
2022-12-29T17:46:06.075Z,66
2022-12-29T18:01:05.211Z,49
2022-12-29T18:16:05.283Z,49
2022-12-29T18:31:05.380Z,43
2022-12-29T18:46:05.400Z,39
2022-12-29T19:01:05.574Z,49
2022-12-29T19:16:05.556Z,42
2022-12-29T19:31:05.837Z,44
2022-12-29T19:46:05.925Z,50
2022-12-29T20:01:04.908Z,36
2022-12-29T20:16:05.879Z,33
2022-12-29T20:31:05.352Z,33
2022-12-29T20:46:05.629Z,28
2022-12-29T21:01:05.042Z,30
2022-12-29T21:16:04.570Z,30
2022-12-29T21:31:05.815Z,36
2022-12-29T21:46:05.509Z,28
2022-12-29T22:01:06.000Z,30
2022-12-29T22:16:05.578Z,27
2022-12-29T22:31:05.378Z,29
2022-12-29T22:46:05.388Z,28
2022-12-29T23:01:05.520Z,24
2022-12-29T23:16:05.710Z,31
2022-12-29T23:31:05.041Z,26
2022-12-29T23:46:04.879Z,28
